sensor_id;sensor_type;location;lat;lon;timestamp;P1;durP1;ratioP1;P2;durP2;ratioP2
45434;SDS011;31183;47.404;8.500;2023-07-29T00:00:10;6.68;;;4.30;;
45434;SDS011;31183;47.404;8.500;2023-07-29T00:02:39;4.65;;;4.22;;
45434;SDS011;31183;47.404;8.500;2023-07-29T00:05:06;5.22;;;4.53;;
45434;SDS011;31183;47.404;8.500;2023-07-29T00:07:33;6.28;;;5.45;;
45434;SDS011;31183;47.404;8.500;2023-07-29T00:10:00;4.70;;;4.13;;
45434;SDS011;31183;47.404;8.500;2023-07-29T00:12:26;5.72;;;3.97;;
45434;SDS011;31183;47.404;8.500;2023-07-29T00:14:53;4.88;;;4.38;;
45434;SDS011;31183;47.404;8.500;2023-07-29T00:17:20;7.15;;;4.20;;
45434;SDS011;31183;47.404;8.500;2023-07-29T00:19:46;5.68;;;4.63;;
45434;SDS011;31183;47.404;8.500;2023-07-29T00:22:13;4.57;;;3.92;;
45434;SDS011;31183;47.404;8.500;2023-07-29T00:24:40;5.22;;;4.22;;
45434;SDS011;31183;47.404;8.500;2023-07-29T00:27:07;5.30;;;4.00;;
45434;SDS011;31183;47.404;8.500;2023-07-29T00:29:34;5.57;;;4.32;;
45434;SDS011;31183;47.404;8.500;2023-07-29T00:32:00;5.22;;;4.40;;
45434;SDS011;31183;47.404;8.500;2023-07-29T00:34:27;4.32;;;3.92;;
45434;SDS011;31183;47.404;8.500;2023-07-29T00:36:54;5.35;;;3.85;;
45434;SDS011;31183;47.404;8.500;2023-07-29T00:39:20;5.10;;;4.60;;
45434;SDS011;31183;47.404;8.500;2023-07-29T00:41:47;5.07;;;4.05;;
45434;SDS011;31183;47.404;8.500;2023-07-29T00:44:14;8.93;;;4.88;;
45434;SDS011;31183;47.404;8.500;2023-07-29T00:46:40;5.45;;;4.88;;
45434;SDS011;31183;47.404;8.500;2023-07-29T00:49:08;5.60;;;4.22;;
45434;SDS011;31183;47.404;8.500;2023-07-29T00:51:35;5.90;;;4.85;;
45434;SDS011;31183;47.404;8.500;2023-07-29T00:54:02;5.25;;;4.50;;
45434;SDS011;31183;47.404;8.500;2023-07-29T00:56:28;4.68;;;4.25;;
45434;SDS011;31183;47.404;8.500;2023-07-29T00:58:55;5.68;;;4.70;;
45434;SDS011;31183;47.404;8.500;2023-07-29T01:01:26;4.80;;;4.30;;
45434;SDS011;31183;47.404;8.500;2023-07-29T01:03:52;7.40;;;4.68;;
45434;SDS011;31183;47.404;8.500;2023-07-29T01:06:30;6.35;;;4.45;;
45434;SDS011;31183;47.404;8.500;2023-07-29T01:09:04;7.50;;;4.53;;
45434;SDS011;31183;47.404;8.500;2023-07-29T01:11:38;5.45;;;4.00;;
45434;SDS011;31183;47.404;8.500;2023-07-29T01:17:08;4.43;;;4.03;;
45434;SDS011;31183;47.404;8.500;2023-07-29T01:19:43;5.85;;;4.70;;
45434;SDS011;31183;47.404;8.500;2023-07-29T01:22:21;5.82;;;4.60;;
45434;SDS011;31183;47.404;8.500;2023-07-29T01:24:50;7.30;;;4.00;;
45434;SDS011;31183;47.404;8.500;2023-07-29T01:27:17;5.07;;;3.75;;
45434;SDS011;31183;47.404;8.500;2023-07-29T01:29:43;4.00;;;3.60;;
45434;SDS011;31183;47.404;8.500;2023-07-29T01:32:11;4.25;;;3.85;;
45434;SDS011;31183;47.404;8.500;2023-07-29T01:34:47;4.53;;;3.83;;
45434;SDS011;31183;47.404;8.500;2023-07-29T01:37:22;4.95;;;4.55;;
45434;SDS011;31183;47.404;8.500;2023-07-29T01:39:54;7.35;;;4.35;;
45434;SDS011;31183;47.404;8.500;2023-07-29T01:42:25;5.88;;;4.57;;
45434;SDS011;31183;47.404;8.500;2023-07-29T01:47:22;4.82;;;4.43;;
45434;SDS011;31183;47.404;8.500;2023-07-29T01:49:49;4.50;;;4.10;;
45434;SDS011;31183;47.404;8.500;2023-07-29T01:52:15;6.25;;;4.00;;
45434;SDS011;31183;47.404;8.500;2023-07-29T01:54:42;4.60;;;4.00;;
45434;SDS011;31183;47.404;8.500;2023-07-29T01:57:08;4.03;;;3.63;;
45434;SDS011;31183;47.404;8.500;2023-07-29T01:59:35;5.22;;;4.55;;
45434;SDS011;31183;47.404;8.500;2023-07-29T02:02:02;6.00;;;4.25;;
45434;SDS011;31183;47.404;8.500;2023-07-29T02:04:28;5.97;;;4.78;;
45434;SDS011;31183;47.404;8.500;2023-07-29T02:06:55;4.32;;;3.92;;
45434;SDS011;31183;47.404;8.500;2023-07-29T02:09:22;7.53;;;4.78;;
45434;SDS011;31183;47.404;8.500;2023-07-29T02:11:48;6.20;;;4.32;;
45434;SDS011;31183;47.404;8.500;2023-07-29T02:14:15;5.65;;;4.47;;
45434;SDS011;31183;47.404;8.500;2023-07-29T02:16:42;5.00;;;4.10;;
45434;SDS011;31183;47.404;8.500;2023-07-29T02:19:09;7.75;;;4.70;;
45434;SDS011;31183;47.404;8.500;2023-07-29T02:21:35;5.28;;;4.53;;
45434;SDS011;31183;47.404;8.500;2023-07-29T02:24:02;5.50;;;4.82;;
45434;SDS011;31183;47.404;8.500;2023-07-29T02:26:29;6.55;;;4.45;;
45434;SDS011;31183;47.404;8.500;2023-07-29T02:28:55;5.78;;;4.60;;
45434;SDS011;31183;47.404;8.500;2023-07-29T02:31:23;5.05;;;4.53;;
45434;SDS011;31183;47.404;8.500;2023-07-29T02:33:51;5.50;;;4.68;;
45434;SDS011;31183;47.404;8.500;2023-07-29T02:36:18;5.20;;;4.68;;
45434;SDS011;31183;47.404;8.500;2023-07-29T02:38:44;4.75;;;4.20;;
45434;SDS011;31183;47.404;8.500;2023-07-29T02:41:11;5.65;;;4.10;;
45434;SDS011;31183;47.404;8.500;2023-07-29T02:43:39;5.30;;;4.78;;
45434;SDS011;31183;47.404;8.500;2023-07-29T02:46:07;4.95;;;4.45;;
45434;SDS011;31183;47.404;8.500;2023-07-29T02:48:33;6.03;;;5.05;;
45434;SDS011;31183;47.404;8.500;2023-07-29T02:51:00;6.28;;;4.85;;
45434;SDS011;31183;47.404;8.500;2023-07-29T02:53:27;5.93;;;5.32;;
45434;SDS011;31183;47.404;8.500;2023-07-29T02:55:53;4.50;;;4.00;;
45434;SDS011;31183;47.404;8.500;2023-07-29T02:58:20;6.93;;;4.63;;
45434;SDS011;31183;47.404;8.500;2023-07-29T03:00:47;5.65;;;5.13;;
45434;SDS011;31183;47.404;8.500;2023-07-29T03:03:14;7.18;;;5.60;;
45434;SDS011;31183;47.404;8.500;2023-07-29T03:05:41;8.60;;;5.40;;
45434;SDS011;31183;47.404;8.500;2023-07-29T03:08:08;6.53;;;5.93;;
45434;SDS011;31183;47.404;8.500;2023-07-29T03:10:35;5.75;;;5.13;;
45434;SDS011;31183;47.404;8.500;2023-07-29T03:13:02;7.15;;;5.65;;
45434;SDS011;31183;47.404;8.500;2023-07-29T03:15:29;6.00;;;5.25;;
45434;SDS011;31183;47.404;8.500;2023-07-29T03:17:56;6.45;;;5.82;;
45434;SDS011;31183;47.404;8.500;2023-07-29T03:20:22;9.68;;;5.45;;
45434;SDS011;31183;47.404;8.500;2023-07-29T03:22:49;5.50;;;5.00;;
45434;SDS011;31183;47.404;8.500;2023-07-29T03:25:15;5.90;;;5.30;;
45434;SDS011;31183;47.404;8.500;2023-07-29T03:27:42;6.03;;;5.45;;
45434;SDS011;31183;47.404;8.500;2023-07-29T03:30:09;5.93;;;5.13;;
45434;SDS011;31183;47.404;8.500;2023-07-29T03:32:39;7.18;;;5.55;;
45434;SDS011;31183;47.404;8.500;2023-07-29T03:35:13;7.60;;;5.38;;
45434;SDS011;31183;47.404;8.500;2023-07-29T03:37:40;5.97;;;5.35;;
45434;SDS011;31183;47.404;8.500;2023-07-29T03:40:07;6.53;;;5.75;;
45434;SDS011;31183;47.404;8.500;2023-07-29T03:42:35;6.15;;;5.47;;
45434;SDS011;31183;47.404;8.500;2023-07-29T03:45:02;6.72;;;6.00;;
45434;SDS011;31183;47.404;8.500;2023-07-29T03:47:29;4.85;;;4.32;;
45434;SDS011;31183;47.404;8.500;2023-07-29T03:49:56;10.57;;;5.82;;
45434;SDS011;31183;47.404;8.500;2023-07-29T03:52:22;8.57;;;5.68;;
45434;SDS011;31183;47.404;8.500;2023-07-29T03:54:49;7.07;;;5.32;;
45434;SDS011;31183;47.404;8.500;2023-07-29T03:57:16;6.28;;;5.38;;
45434;SDS011;31183;47.404;8.500;2023-07-29T03:59:42;8.10;;;5.75;;
45434;SDS011;31183;47.404;8.500;2023-07-29T04:02:09;8.85;;;6.57;;
45434;SDS011;31183;47.404;8.500;2023-07-29T04:04:36;9.93;;;7.43;;
45434;SDS011;31183;47.404;8.500;2023-07-29T04:07:03;7.18;;;6.00;;
45434;SDS011;31183;47.404;8.500;2023-07-29T04:09:30;7.57;;;6.28;;
45434;SDS011;31183;47.404;8.500;2023-07-29T04:11:56;6.45;;;5.28;;
45434;SDS011;31183;47.404;8.500;2023-07-29T04:14:23;6.13;;;5.38;;
45434;SDS011;31183;47.404;8.500;2023-07-29T04:16:49;6.10;;;5.07;;
45434;SDS011;31183;47.404;8.500;2023-07-29T04:19:16;7.82;;;5.35;;
45434;SDS011;31183;47.404;8.500;2023-07-29T04:21:43;5.30;;;4.63;;
45434;SDS011;31183;47.404;8.500;2023-07-29T04:24:09;9.65;;;6.22;;
45434;SDS011;31183;47.404;8.500;2023-07-29T04:26:36;4.55;;;4.13;;
45434;SDS011;31183;47.404;8.500;2023-07-29T04:29:04;5.20;;;4.70;;
45434;SDS011;31183;47.404;8.500;2023-07-29T04:31:31;6.68;;;5.10;;
45434;SDS011;31183;47.404;8.500;2023-07-29T04:33:58;6.25;;;5.35;;
45434;SDS011;31183;47.404;8.500;2023-07-29T04:36:25;8.07;;;5.50;;
45434;SDS011;31183;47.404;8.500;2023-07-29T04:38:51;5.72;;;4.38;;
45434;SDS011;31183;47.404;8.500;2023-07-29T04:41:18;5.18;;;4.32;;
45434;SDS011;31183;47.404;8.500;2023-07-29T04:43:45;4.43;;;4.03;;
45434;SDS011;31183;47.404;8.500;2023-07-29T04:46:11;6.38;;;5.65;;
45434;SDS011;31183;47.404;8.500;2023-07-29T04:48:38;4.97;;;4.47;;
45434;SDS011;31183;47.404;8.500;2023-07-29T04:51:05;6.32;;;5.70;;
45434;SDS011;31183;47.404;8.500;2023-07-29T04:53:31;6.03;;;5.13;;
45434;SDS011;31183;47.404;8.500;2023-07-29T04:55:59;5.28;;;4.50;;
45434;SDS011;31183;47.404;8.500;2023-07-29T04:58:25;4.95;;;4.53;;
45434;SDS011;31183;47.404;8.500;2023-07-29T05:00:55;5.93;;;4.95;;
45434;SDS011;31183;47.404;8.500;2023-07-29T05:03:22;5.60;;;4.15;;
45434;SDS011;31183;47.404;8.500;2023-07-29T05:05:48;5.13;;;4.63;;
45434;SDS011;31183;47.404;8.500;2023-07-29T05:08:15;6.88;;;4.88;;
45434;SDS011;31183;47.404;8.500;2023-07-29T05:10:41;5.47;;;4.93;;
45434;SDS011;31183;47.404;8.500;2023-07-29T05:13:08;5.38;;;4.78;;
45434;SDS011;31183;47.404;8.500;2023-07-29T05:15:35;4.88;;;4.45;;
45434;SDS011;31183;47.404;8.500;2023-07-29T05:18:01;5.60;;;4.63;;
45434;SDS011;31183;47.404;8.500;2023-07-29T05:20:28;5.82;;;4.72;;
45434;SDS011;31183;47.404;8.500;2023-07-29T05:22:55;5.20;;;4.70;;
45434;SDS011;31183;47.404;8.500;2023-07-29T05:25:21;12.40;;;5.47;;
45434;SDS011;31183;47.404;8.500;2023-07-29T05:27:48;6.30;;;5.20;;
45434;SDS011;31183;47.404;8.500;2023-07-29T05:30:15;5.97;;;4.30;;
45434;SDS011;31183;47.404;8.500;2023-07-29T05:32:41;5.30;;;4.80;;
45434;SDS011;31183;47.404;8.500;2023-07-29T05:35:08;6.88;;;5.45;;
45434;SDS011;31183;47.404;8.500;2023-07-29T05:37:39;5.05;;;4.55;;
45434;SDS011;31183;47.404;8.500;2023-07-29T05:40:06;6.33;;;5.30;;
45434;SDS011;31183;47.404;8.500;2023-07-29T05:42:34;5.90;;;4.97;;
45434;SDS011;31183;47.404;8.500;2023-07-29T05:45:01;6.32;;;4.53;;
45434;SDS011;31183;47.404;8.500;2023-07-29T05:47:28;8.57;;;5.80;;
45434;SDS011;31183;47.404;8.500;2023-07-29T05:49:55;7.68;;;5.75;;
45434;SDS011;31183;47.404;8.500;2023-07-29T05:52:21;5.43;;;4.93;;
45434;SDS011;31183;47.404;8.500;2023-07-29T05:54:48;5.68;;;5.07;;
45434;SDS011;31183;47.404;8.500;2023-07-29T05:57:15;7.90;;;5.65;;
45434;SDS011;31183;47.404;8.500;2023-07-29T05:59:41;7.30;;;6.60;;
45434;SDS011;31183;47.404;8.500;2023-07-29T06:02:08;6.05;;;4.57;;
45434;SDS011;31183;47.404;8.500;2023-07-29T06:04:34;8.50;;;5.32;;
45434;SDS011;31183;47.404;8.500;2023-07-29T06:07:01;6.45;;;5.55;;
45434;SDS011;31183;47.404;8.500;2023-07-29T06:09:27;6.78;;;5.65;;
45434;SDS011;31183;47.404;8.500;2023-07-29T06:11:54;5.93;;;5.32;;
45434;SDS011;31183;47.404;8.500;2023-07-29T06:14:21;6.95;;;5.72;;
45434;SDS011;31183;47.404;8.500;2023-07-29T06:16:47;7.05;;;5.28;;
45434;SDS011;31183;47.404;8.500;2023-07-29T06:19:14;6.10;;;5.43;;
45434;SDS011;31183;47.404;8.500;2023-07-29T06:21:41;6.60;;;5.53;;
45434;SDS011;31183;47.404;8.500;2023-07-29T06:24:08;7.45;;;5.80;;
45434;SDS011;31183;47.404;8.500;2023-07-29T06:26:36;5.75;;;5.15;;
45434;SDS011;31183;47.404;8.500;2023-07-29T06:29:03;6.65;;;5.75;;
45434;SDS011;31183;47.404;8.500;2023-07-29T06:31:30;7.38;;;5.70;;
45434;SDS011;31183;47.404;8.500;2023-07-29T06:33:58;6.47;;;5.82;;
45434;SDS011;31183;47.404;8.500;2023-07-29T06:36:25;7.30;;;6.22;;
45434;SDS011;31183;47.404;8.500;2023-07-29T06:38:52;6.13;;;5.50;;
45434;SDS011;31183;47.404;8.500;2023-07-29T06:41:18;6.18;;;5.57;;
45434;SDS011;31183;47.404;8.500;2023-07-29T06:43:46;6.25;;;5.53;;
45434;SDS011;31183;47.404;8.500;2023-07-29T06:46:12;5.90;;;5.30;;
45434;SDS011;31183;47.404;8.500;2023-07-29T06:48:39;7.13;;;5.60;;
45434;SDS011;31183;47.404;8.500;2023-07-29T06:51:06;7.32;;;5.70;;
45434;SDS011;31183;47.404;8.500;2023-07-29T06:53:32;6.15;;;5.20;;
45434;SDS011;31183;47.404;8.500;2023-07-29T06:56:00;7.30;;;5.35;;
45434;SDS011;31183;47.404;8.500;2023-07-29T06:58:27;26.20;;;5.80;;
45434;SDS011;31183;47.404;8.500;2023-07-29T07:00:53;7.05;;;5.50;;
45434;SDS011;31183;47.404;8.500;2023-07-29T07:03:23;6.35;;;5.75;;
45434;SDS011;31183;47.404;8.500;2023-07-29T07:05:49;6.13;;;4.97;;
45434;SDS011;31183;47.404;8.500;2023-07-29T07:08:16;8.60;;;6.28;;
45434;SDS011;31183;47.404;8.500;2023-07-29T07:10:43;6.97;;;5.35;;
45434;SDS011;31183;47.404;8.500;2023-07-29T07:13:10;6.10;;;5.50;;
45434;SDS011;31183;47.404;8.500;2023-07-29T07:15:36;6.70;;;5.43;;
45434;SDS011;31183;47.404;8.500;2023-07-29T07:18:03;7.28;;;5.28;;
45434;SDS011;31183;47.404;8.500;2023-07-29T07:20:30;8.80;;;5.97;;
45434;SDS011;31183;47.404;8.500;2023-07-29T07:22:57;10.00;;;5.45;;
45434;SDS011;31183;47.404;8.500;2023-07-29T07:25:23;7.75;;;5.43;;
45434;SDS011;31183;47.404;8.500;2023-07-29T07:27:50;6.43;;;5.75;;
45434;SDS011;31183;47.404;8.500;2023-07-29T07:30:17;6.90;;;5.68;;
45434;SDS011;31183;47.404;8.500;2023-07-29T07:32:43;6.90;;;5.32;;
45434;SDS011;31183;47.404;8.500;2023-07-29T07:35:11;5.90;;;4.78;;
45434;SDS011;31183;47.404;8.500;2023-07-29T07:37:38;9.77;;;5.43;;
45434;SDS011;31183;47.404;8.500;2023-07-29T07:40:04;6.25;;;5.65;;
45434;SDS011;31183;47.404;8.500;2023-07-29T07:42:31;6.22;;;5.20;;
45434;SDS011;31183;47.404;8.500;2023-07-29T07:44:58;6.32;;;5.65;;
45434;SDS011;31183;47.404;8.500;2023-07-29T07:47:25;6.28;;;5.65;;
45434;SDS011;31183;47.404;8.500;2023-07-29T07:49:51;6.65;;;5.78;;
45434;SDS011;31183;47.404;8.500;2023-07-29T07:52:18;6.75;;;5.80;;
45434;SDS011;31183;47.404;8.500;2023-07-29T07:54:45;7.40;;;5.07;;
45434;SDS011;31183;47.404;8.500;2023-07-29T07:57:12;5.65;;;5.00;;
45434;SDS011;31183;47.404;8.500;2023-07-29T07:59:39;7.63;;;5.80;;
45434;SDS011;31183;47.404;8.500;2023-07-29T08:02:06;5.95;;;5.07;;
45434;SDS011;31183;47.404;8.500;2023-07-29T08:04:32;6.20;;;5.60;;
45434;SDS011;31183;47.404;8.500;2023-07-29T08:06:59;6.70;;;6.10;;
45434;SDS011;31183;47.404;8.500;2023-07-29T08:09:26;6.63;;;6.00;;
45434;SDS011;31183;47.404;8.500;2023-07-29T08:11:52;6.85;;;5.38;;
45434;SDS011;31183;47.404;8.500;2023-07-29T08:14:19;8.93;;;6.20;;
45434;SDS011;31183;47.404;8.500;2023-07-29T08:16:45;9.75;;;6.00;;
45434;SDS011;31183;47.404;8.500;2023-07-29T08:19:12;6.90;;;6.10;;
45434;SDS011;31183;47.404;8.500;2023-07-29T08:21:39;6.57;;;5.82;;
45434;SDS011;31183;47.404;8.500;2023-07-29T08:24:05;6.28;;;5.65;;
45434;SDS011;31183;47.404;8.500;2023-07-29T08:26:33;8.02;;;6.32;;
45434;SDS011;31183;47.404;8.500;2023-07-29T08:29:00;8.90;;;6.75;;
45434;SDS011;31183;47.404;8.500;2023-07-29T08:31:27;7.63;;;6.53;;
45434;SDS011;31183;47.404;8.500;2023-07-29T08:33:54;8.05;;;6.00;;
45434;SDS011;31183;47.404;8.500;2023-07-29T08:36:20;7.28;;;6.57;;
45434;SDS011;31183;47.404;8.500;2023-07-29T08:38:47;6.93;;;5.88;;
45434;SDS011;31183;47.404;8.500;2023-07-29T08:41:29;7.28;;;6.00;;
45434;SDS011;31183;47.404;8.500;2023-07-29T08:46:30;9.10;;;5.55;;
45434;SDS011;31183;47.404;8.500;2023-07-29T08:48:58;5.88;;;5.38;;
45434;SDS011;31183;47.404;8.500;2023-07-29T08:51:26;6.70;;;5.80;;
45434;SDS011;31183;47.404;8.500;2023-07-29T08:53:53;6.75;;;6.05;;
45434;SDS011;31183;47.404;8.500;2023-07-29T08:56:20;6.85;;;5.57;;
45434;SDS011;31183;47.404;8.500;2023-07-29T08:58:47;7.25;;;5.45;;
45434;SDS011;31183;47.404;8.500;2023-07-29T09:01:14;5.95;;;5.40;;
45434;SDS011;31183;47.404;8.500;2023-07-29T09:03:41;5.78;;;5.28;;
45434;SDS011;31183;47.404;8.500;2023-07-29T09:06:08;6.47;;;4.90;;
45434;SDS011;31183;47.404;8.500;2023-07-29T09:08:35;5.40;;;4.90;;
45434;SDS011;31183;47.404;8.500;2023-07-29T09:11:02;5.50;;;4.93;;
45434;SDS011;31183;47.404;8.500;2023-07-29T09:13:29;8.55;;;5.28;;
45434;SDS011;31183;47.404;8.500;2023-07-29T09:15:57;5.10;;;4.70;;
45434;SDS011;31183;47.404;8.500;2023-07-29T09:18:25;4.80;;;4.30;;
45434;SDS011;31183;47.404;8.500;2023-07-29T09:20:53;6.15;;;4.93;;
45434;SDS011;31183;47.404;8.500;2023-07-29T09:23:20;5.95;;;4.78;;
45434;SDS011;31183;47.404;8.500;2023-07-29T09:25:46;5.82;;;5.18;;
45434;SDS011;31183;47.404;8.500;2023-07-29T09:28:14;5.90;;;5.40;;
45434;SDS011;31183;47.404;8.500;2023-07-29T09:30:44;5.72;;;5.07;;
45434;SDS011;31183;47.404;8.500;2023-07-29T09:33:12;6.10;;;4.82;;
45434;SDS011;31183;47.404;8.500;2023-07-29T09:35:39;5.88;;;5.28;;
45434;SDS011;31183;47.404;8.500;2023-07-29T09:38:06;5.30;;;4.80;;
45434;SDS011;31183;47.404;8.500;2023-07-29T09:40:34;7.15;;;4.05;;
45434;SDS011;31183;47.404;8.500;2023-07-29T09:43:03;5.00;;;4.20;;
45434;SDS011;31183;47.404;8.500;2023-07-29T09:45:32;5.80;;;4.30;;
45434;SDS011;31183;47.404;8.500;2023-07-29T09:48:00;4.80;;;4.40;;
45434;SDS011;31183;47.404;8.500;2023-07-29T09:50:27;7.35;;;5.10;;
45434;SDS011;31183;47.404;8.500;2023-07-29T09:52:54;5.45;;;4.95;;
45434;SDS011;31183;47.404;8.500;2023-07-29T09:55:22;4.93;;;4.43;;
45434;SDS011;31183;47.404;8.500;2023-07-29T09:57:56;4.88;;;4.47;;
45434;SDS011;31183;47.404;8.500;2023-07-29T10:00:27;5.30;;;4.85;;
45434;SDS011;31183;47.404;8.500;2023-07-29T10:02:54;6.00;;;5.10;;
45434;SDS011;31183;47.404;8.500;2023-07-29T10:05:25;5.28;;;4.78;;
45434;SDS011;31183;47.404;8.500;2023-07-29T10:07:52;13.30;;;5.20;;
45434;SDS011;31183;47.404;8.500;2023-07-29T10:10:20;7.75;;;5.85;;
45434;SDS011;31183;47.404;8.500;2023-07-29T10:12:47;5.63;;;4.32;;
45434;SDS011;31183;47.404;8.500;2023-07-29T10:15:14;6.68;;;4.72;;
45434;SDS011;31183;47.404;8.500;2023-07-29T10:17:41;7.43;;;4.55;;
45434;SDS011;31183;47.404;8.500;2023-07-29T10:20:08;4.85;;;4.30;;
45434;SDS011;31183;47.404;8.500;2023-07-29T10:22:36;12.95;;;5.70;;
45434;SDS011;31183;47.404;8.500;2023-07-29T10:25:07;5.15;;;4.65;;
45434;SDS011;31183;47.404;8.500;2023-07-29T10:27:43;6.22;;;4.55;;
45434;SDS011;31183;47.404;8.500;2023-07-29T10:30:13;5.95;;;5.32;;
45434;SDS011;31183;47.404;8.500;2023-07-29T10:32:43;22.63;;;10.90;;
45434;SDS011;31183;47.404;8.500;2023-07-29T10:35:15;24.77;;;11.25;;
45434;SDS011;31183;47.404;8.500;2023-07-29T10:37:42;6.03;;;5.28;;
45434;SDS011;31183;47.404;8.500;2023-07-29T10:40:10;6.18;;;4.65;;
45434;SDS011;31183;47.404;8.500;2023-07-29T10:42:38;19.50;;;7.80;;
45434;SDS011;31183;47.404;8.500;2023-07-29T10:45:25;5.95;;;5.15;;
45434;SDS011;31183;47.404;8.500;2023-07-29T10:47:51;11.25;;;7.22;;
45434;SDS011;31183;47.404;8.500;2023-07-29T10:50:19;7.38;;;5.13;;
45434;SDS011;31183;47.404;8.500;2023-07-29T10:52:50;4.88;;;4.10;;
45434;SDS011;31183;47.404;8.500;2023-07-29T10:55:23;13.32;;;5.20;;
45434;SDS011;31183;47.404;8.500;2023-07-29T10:58:07;7.80;;;5.35;;
45434;SDS011;31183;47.404;8.500;2023-07-29T11:00:40;7.53;;;4.50;;
45434;SDS011;31183;47.404;8.500;2023-07-29T11:03:08;8.30;;;5.47;;
45434;SDS011;31183;47.404;8.500;2023-07-29T11:05:42;7.22;;;4.38;;
45434;SDS011;31183;47.404;8.500;2023-07-29T11:08:16;5.95;;;4.93;;
45434;SDS011;31183;47.404;8.500;2023-07-29T11:13:31;6.20;;;5.30;;
45434;SDS011;31183;47.404;8.500;2023-07-29T11:16:02;5.40;;;4.15;;
45434;SDS011;31183;47.404;8.500;2023-07-29T11:18:30;5.82;;;4.00;;
45434;SDS011;31183;47.404;8.500;2023-07-29T11:20:59;7.85;;;4.95;;
45434;SDS011;31183;47.404;8.500;2023-07-29T11:25:59;5.93;;;4.50;;
45434;SDS011;31183;47.404;8.500;2023-07-29T11:28:26;6.45;;;5.13;;
45434;SDS011;31183;47.404;8.500;2023-07-29T11:30:54;4.65;;;4.25;;
45434;SDS011;31183;47.404;8.500;2023-07-29T11:33:22;6.03;;;5.00;;
45434;SDS011;31183;47.404;8.500;2023-07-29T11:35:55;8.32;;;4.70;;
45434;SDS011;31183;47.404;8.500;2023-07-29T11:38:22;7.97;;;4.63;;
45434;SDS011;31183;47.404;8.500;2023-07-29T11:40:59;3.53;;;3.22;;
45434;SDS011;31183;47.404;8.500;2023-07-29T11:43:29;5.97;;;4.30;;
45434;SDS011;31183;47.404;8.500;2023-07-29T11:45:56;4.38;;;3.95;;
45434;SDS011;31183;47.404;8.500;2023-07-29T11:48:30;7.10;;;4.03;;
45434;SDS011;31183;47.404;8.500;2023-07-29T11:50:58;3.97;;;3.58;;
45434;SDS011;31183;47.404;8.500;2023-07-29T11:53:27;6.45;;;3.50;;
45434;SDS011;31183;47.404;8.500;2023-07-29T11:55:56;4.35;;;3.92;;
45434;SDS011;31183;47.404;8.500;2023-07-29T11:58:23;4.32;;;3.10;;
45434;SDS011;31183;47.404;8.500;2023-07-29T12:00:50;6.70;;;3.40;;
45434;SDS011;31183;47.404;8.500;2023-07-29T12:03:18;5.05;;;4.07;;
45434;SDS011;31183;47.404;8.500;2023-07-29T12:05:45;3.90;;;3.50;;
45434;SDS011;31183;47.404;8.500;2023-07-29T12:08:13;5.38;;;4.40;;
45434;SDS011;31183;47.404;8.500;2023-07-29T12:10:39;7.78;;;4.85;;
45434;SDS011;31183;47.404;8.500;2023-07-29T12:13:07;5.45;;;4.28;;
45434;SDS011;31183;47.404;8.500;2023-07-29T12:15:34;4.72;;;4.22;;
45434;SDS011;31183;47.404;8.500;2023-07-29T12:18:03;6.45;;;4.32;;
45434;SDS011;31183;47.404;8.500;2023-07-29T12:20:30;4.97;;;3.67;;
45434;SDS011;31183;47.404;8.500;2023-07-29T12:22:57;6.25;;;4.35;;
45434;SDS011;31183;47.404;8.500;2023-07-29T12:25:27;4.25;;;3.80;;
45434;SDS011;31183;47.404;8.500;2023-07-29T12:27:55;4.68;;;4.20;;
45434;SDS011;31183;47.404;8.500;2023-07-29T12:30:22;5.40;;;4.40;;
45434;SDS011;31183;47.404;8.500;2023-07-29T12:32:50;5.97;;;4.30;;
45434;SDS011;31183;47.404;8.500;2023-07-29T12:35:17;4.88;;;4.40;;
45434;SDS011;31183;47.404;8.500;2023-07-29T12:37:44;4.55;;;4.13;;
45434;SDS011;31183;47.404;8.500;2023-07-29T12:40:20;5.05;;;4.22;;
45434;SDS011;31183;47.404;8.500;2023-07-29T12:42:51;5.50;;;3.75;;
45434;SDS011;31183;47.404;8.500;2023-07-29T12:45:18;4.35;;;3.95;;
45434;SDS011;31183;47.404;8.500;2023-07-29T12:47:45;4.15;;;3.65;;
45434;SDS011;31183;47.404;8.500;2023-07-29T12:50:12;8.02;;;3.88;;
45434;SDS011;31183;47.404;8.500;2023-07-29T12:52:38;4.65;;;3.78;;
45434;SDS011;31183;47.404;8.500;2023-07-29T12:55:05;2.83;;;2.42;;
45434;SDS011;31183;47.404;8.500;2023-07-29T12:57:35;4.43;;;1.90;;
45434;SDS011;31183;47.404;8.500;2023-07-29T13:00:02;2.90;;;2.42;;
45434;SDS011;31183;47.404;8.500;2023-07-29T13:02:30;5.15;;;2.70;;
45434;SDS011;31183;47.404;8.500;2023-07-29T13:04:58;3.22;;;2.63;;
45434;SDS011;31183;47.404;8.500;2023-07-29T13:07:24;3.65;;;2.50;;
45434;SDS011;31183;47.404;8.500;2023-07-29T13:09:51;3.92;;;2.70;;
45434;SDS011;31183;47.404;8.500;2023-07-29T13:12:17;5.47;;;2.78;;
45434;SDS011;31183;47.404;8.500;2023-07-29T13:14:44;3.30;;;2.40;;
45434;SDS011;31183;47.404;8.500;2023-07-29T13:17:11;5.72;;;2.55;;
45434;SDS011;31183;47.404;8.500;2023-07-29T13:19:37;2.50;;;2.03;;
45434;SDS011;31183;47.404;8.500;2023-07-29T13:22:04;3.92;;;2.55;;
45434;SDS011;31183;47.404;8.500;2023-07-29T13:24:31;10.38;;;4.85;;
45434;SDS011;31183;47.404;8.500;2023-07-29T13:26:58;4.28;;;3.30;;
45434;SDS011;31183;47.404;8.500;2023-07-29T13:29:25;4.82;;;3.22;;
45434;SDS011;31183;47.404;8.500;2023-07-29T13:31:51;4.95;;;2.90;;
45434;SDS011;31183;47.404;8.500;2023-07-29T13:34:18;3.40;;;2.50;;
45434;SDS011;31183;47.404;8.500;2023-07-29T13:36:45;4.03;;;2.80;;
45434;SDS011;31183;47.404;8.500;2023-07-29T13:39:11;4.43;;;2.83;;
45434;SDS011;31183;47.404;8.500;2023-07-29T13:41:38;3.85;;;2.88;;
45434;SDS011;31183;47.404;8.500;2023-07-29T13:44:05;4.78;;;2.30;;
45434;SDS011;31183;47.404;8.500;2023-07-29T13:46:31;3.30;;;2.63;;
45434;SDS011;31183;47.404;8.500;2023-07-29T13:48:58;4.20;;;2.75;;
45434;SDS011;31183;47.404;8.500;2023-07-29T13:51:25;3.45;;;2.90;;
45434;SDS011;31183;47.404;8.500;2023-07-29T13:53:51;2.60;;;2.17;;
45434;SDS011;31183;47.404;8.500;2023-07-29T13:56:18;3.00;;;2.70;;
45434;SDS011;31183;47.404;8.500;2023-07-29T13:58:45;2.95;;;2.65;;
45434;SDS011;31183;47.404;8.500;2023-07-29T14:01:12;3.78;;;2.67;;
45434;SDS011;31183;47.404;8.500;2023-07-29T14:03:38;4.47;;;3.35;;
45434;SDS011;31183;47.404;8.500;2023-07-29T14:06:05;4.80;;;3.45;;
45434;SDS011;31183;47.404;8.500;2023-07-29T14:08:32;4.82;;;3.78;;
45434;SDS011;31183;47.404;8.500;2023-07-29T14:10:58;5.13;;;3.80;;
45434;SDS011;31183;47.404;8.500;2023-07-29T14:13:25;4.35;;;3.83;;
45434;SDS011;31183;47.404;8.500;2023-07-29T14:15:52;5.43;;;3.45;;
45434;SDS011;31183;47.404;8.500;2023-07-29T14:18:19;6.60;;;3.20;;
45434;SDS011;31183;47.404;8.500;2023-07-29T14:20:46;4.75;;;3.03;;
45434;SDS011;31183;47.404;8.500;2023-07-29T14:23:12;4.05;;;3.00;;
45434;SDS011;31183;47.404;8.500;2023-07-29T14:25:39;2.90;;;2.65;;
45434;SDS011;31183;47.404;8.500;2023-07-29T14:28:05;2.67;;;2.47;;
45434;SDS011;31183;47.404;8.500;2023-07-29T14:30:32;4.82;;;3.17;;
45434;SDS011;31183;47.404;8.500;2023-07-29T14:33:00;4.18;;;3.10;;
45434;SDS011;31183;47.404;8.500;2023-07-29T14:35:27;7.47;;;3.33;;
45434;SDS011;31183;47.404;8.500;2023-07-29T14:37:53;2.80;;;2.50;;
45434;SDS011;31183;47.404;8.500;2023-07-29T14:40:20;5.53;;;3.22;;
45434;SDS011;31183;47.404;8.500;2023-07-29T14:42:47;9.32;;;6.68;;
45434;SDS011;31183;47.404;8.500;2023-07-29T14:45:13;5.28;;;3.58;;
45434;SDS011;31183;47.404;8.500;2023-07-29T14:47:40;3.10;;;2.80;;
45434;SDS011;31183;47.404;8.500;2023-07-29T14:50:07;4.68;;;2.63;;
45434;SDS011;31183;47.404;8.500;2023-07-29T14:52:33;3.60;;;2.40;;
45434;SDS011;31183;47.404;8.500;2023-07-29T14:55:00;3.40;;;2.70;;
45434;SDS011;31183;47.404;8.500;2023-07-29T14:57:27;2.92;;;2.40;;
45434;SDS011;31183;47.404;8.500;2023-07-29T14:59:53;3.22;;;2.75;;
45434;SDS011;31183;47.404;8.500;2023-07-29T15:02:20;2.40;;;2.20;;